Time;durP1;ratioP1;P1;durP2;ratioP2;P2;SDS_P1;SDS_P2;PMS_P1;PMS_P2;Temp;Humidity;BMP_temperature;BMP_pressure;BME280_temperature;BME280_humidity;BME280_pressure;Samples;Min_cycle;Max_cycle;Signal;HPM_P1;HPM_P2
2021/07/02 00:00:46;;;;;;;;;22.50;22.50;;;;;24.65;47.26;101375.59;5017464;27;51506;-47
2021/07/02 00:03:11;;;;;;;;;28.25;26.75;;;;;24.64;46.88;101373.06;5028215;28;51089;-46
2021/07/02 00:05:36;;;;;;;;;28.50;26.25;;;;;24.64;46.90;101365.59;5024095;28;50897;-44
2021/07/02 00:08:02;;;;;;;;;29.25;23.25;;;;;24.65;47.00;101363.69;5015619;28;51180;-44
2021/07/02 00:10:27;;;;;;;;;25.75;21.75;;;;;24.63;46.75;101363.09;5015265;27;52103;-45
2021/07/02 00:12:53;;;;;;;;;25.25;23.50;;;;;24.63;47.22;101363.91;5017014;27;50999;-49
2021/07/02 00:15:18;;;;;;;;;29.25;25.00;;;;;24.64;47.16;101367.53;5018510;28;52899;-48
2021/07/02 00:17:43;;;;;;;;;27.50;23.75;;;;;24.62;47.02;101362.25;5018487;28;50982;-44
2021/07/02 00:20:09;;;;;;;;;28.50;23.50;;;;;24.62;47.20;101355.84;5016911;28;51099;-43
2021/07/02 00:22:35;;;;;;;;;31.50;27.75;;;;;24.62;47.25;101361.41;5016436;27;51234;-46
2021/07/02 00:25:05;;;;;;;;;27.50;22.75;;;;;24.61;47.16;101366.09;5015674;28;51734;-43
2021/07/02 00:27:31;;;;;;;;;25.25;22.75;;;;;24.62;47.22;101362.25;5038342;27;51601;-43
2021/07/02 00:29:56;;;;;;;;;23.00;20.75;;;;;24.62;47.24;101369.72;5017479;28;51263;-44
2021/07/02 00:32:21;;;;;;;;;29.75;24.75;;;;;24.60;47.18;101361.63;5023831;28;51142;-47
2021/07/02 00:34:47;;;;;;;;;24.50;22.75;;;;;24.61;46.99;101359.72;5024257;28;51085;-44
2021/07/02 00:37:12;;;;;;;;;25.75;24.25;;;;;24.60;47.09;101364.41;5015275;28;51133;-45
2021/07/02 00:39:37;;;;;;;;;22.50;22.50;;;;;24.61;47.20;101365.25;5015393;27;51091;-45
2021/07/02 00:42:03;;;;;;;;;31.00;29.25;;;;;24.61;46.87;101376.34;5016569;27;51084;-46
2021/07/02 00:44:36;;;;;;;;;25.50;21.75;;;;;24.60;46.95;101369.94;5018162;28;53475;-45
2021/07/02 00:47:02;;;;;;;;;26.50;22.50;;;;;24.60;47.22;101375.50;5015844;27;51060;-44
2021/07/02 00:49:27;;;;;;;;;30.50;27.75;;;;;24.60;47.17;101374.66;5018562;28;50909;-44
2021/07/02 00:51:52;;;;;;;;;28.25;25.75;;;;;24.60;47.46;101375.50;5016606;27;51091;-44
2021/07/02 00:54:18;;;;;;;;;25.00;21.50;;;;;24.61;47.45;101379.09;5018992;28;51041;-44
2021/07/02 00:56:43;;;;;;;;;27.00;23.50;;;;;24.60;47.01;101375.50;5016175;28;51084;-46
2021/07/02 00:59:09;;;;;;;;;25.00;23.50;;;;;24.61;47.10;101373.56;5015024;28;51064;-43
2021/07/02 01:01:36;;;;;;;;;29.75;28.00;;;;;24.61;47.38;101371.63;5014893;28;51011;-43
2021/07/02 01:04:01;;;;;;;;;32.75;29.75;;;;;24.59;47.13;101371.00;5013969;28;51964;-44
2021/07/02 01:06:27;;;;;;;;;44.75;35.75;;;;;24.60;47.06;101371.88;5017092;28;51087;-44
2021/07/02 01:08:52;;;;;;;;;42.25;34.25;;;;;24.60;47.45;101367.19;5015055;27;51141;-48
2021/07/02 01:11:17;;;;;;;;;45.25;34.75;;;;;24.59;47.45;101367.38;5016167;27;51129;-46
2021/07/02 01:13:43;;;;;;;;;42.75;35.00;;;;;24.57;47.47;101364.88;5014868;28;50990;-46
2021/07/02 01:16:09;;;;;;;;;43.75;36.00;;;;;24.58;47.11;101366.53;5013826;28;51464;-45
2021/07/02 01:18:34;;;;;;;;;42.75;34.25;;;;;24.57;47.16;101359.31;5013763;28;50953;-44
2021/07/02 01:20:59;;;;;;;;;47.50;35.75;;;;;24.58;47.20;101366.53;5016530;28;50874;-44
2021/07/02 01:23:27;;;;;;;;;44.75;35.25;;;;;24.57;47.02;101364.88;5017224;28;52007;-47
2021/07/02 01:25:54;;;;;;;;;41.75;34.50;;;;;24.57;47.31;101366.78;5014757;27;51161;-44
2021/07/02 01:28:19;;;;;;;;;38.25;35.00;;;;;24.57;47.18;101362.09;5054306;27;50914;-45
2021/07/02 01:30:45;;;;;;;;;43.50;34.00;;;;;24.57;47.38;101364.03;5015786;28;51239;-45
2021/07/02 01:33:11;;;;;;;;;39.25;31.00;;;;;24.57;47.33;101364.03;5013782;27;52622;-44
2021/07/02 01:35:37;;;;;;;;;36.75;33.00;;;;;24.56;47.49;101356.78;5018413;28;51233;-45
2021/07/02 01:38:03;;;;;;;;;33.75;30.50;;;;;24.57;47.14;101358.47;5027035;28;50462;-45
2021/07/02 01:40:31;;;;;;;;;40.75;32.50;;;;;24.57;47.36;101361.25;5022679;28;51144;-45
2021/07/02 01:42:57;;;;;;;;;35.75;32.25;;;;;24.57;47.48;101359.31;5012586;27;51729;-45
2021/07/02 01:45:22;;;;;;;;;39.00;30.50;;;;;24.57;46.93;101358.47;5013017;28;51294;-45
2021/07/02 01:47:48;;;;;;;;;36.75;30.00;;;;;24.56;47.35;101362.34;5013292;28;51180;-46
2021/07/02 01:50:13;;;;;;;;;37.50;31.25;;;;;24.56;47.50;101352.09;5013574;28;51329;-44
2021/07/02 01:52:38;;;;;;;;;36.75;32.50;;;;;24.56;46.97;101352.09;5013715;28;52020;-47
2021/07/02 01:55:05;;;;;;;;;36.25;30.50;;;;;24.57;47.46;101352.94;5017152;28;51028;-46
2021/07/02 01:57:30;;;;;;;;;29.50;25.50;;;;;24.55;47.30;101355.09;5015230;27;51078;-47
2021/07/02 01:59:56;;;;;;;;;31.00;28.25;;;;;24.56;47.02;101354.88;5013966;28;51062;-45
2021/07/02 02:02:23;;;;;;;;;31.00;29.50;;;;;24.55;47.34;101344.88;4990594;27;1159458;-46
2021/07/02 02:04:48;;;;;;;;;33.75;27.75;;;;;24.55;47.33;101344.88;5014764;28;51043;-45
2021/07/02 02:07:14;;;;;;;;;31.50;29.50;;;;;24.55;47.21;101342.09;5016404;28;51745;-46
2021/07/02 02:09:40;;;;;;;;;28.50;26.00;;;;;24.54;47.35;101336.81;5016705;28;51261;-47
2021/07/02 02:12:06;;;;;;;;;36.25;27.75;;;;;24.54;47.48;101343.19;5015488;28;52321;-48
2021/07/02 02:14:32;;;;;;;;;25.75;23.00;;;;;24.54;47.36;101343.19;5014095;28;51044;-46
2021/07/02 02:16:58;;;;;;;;;33.00;28.25;;;;;24.54;47.48;101336.81;5014586;28;51189;-44
2021/07/02 02:19:24;;;;;;;;;30.00;27.25;;;;;24.53;47.44;101337.88;5014182;27;51106;-45
2021/07/02 02:21:50;;;;;;;;;30.00;27.50;;;;;24.53;47.36;101340.66;5013721;28;51230;-45
2021/07/02 02:24:18;;;;;;;;;28.75;26.75;;;;;24.53;47.55;101341.50;5013966;28;51559;-46
2021/07/02 02:26:44;;;;;;;;;31.75;27.25;;;;;24.53;47.63;101341.50;5015730;28;50990;-44
2021/07/02 02:29:09;;;;;;;;;23.00;21.25;;;;;24.52;47.35;101334.28;5022179;27;51089;-45
2021/07/02 02:31:35;;;;;;;;;30.50;28.50;;;;;24.52;47.50;101342.59;5014282;27;51010;-45
2021/07/02 02:34:00;;;;;;;;;28.00;25.75;;;;;24.51;47.61;101338.13;5012917;27;51557;-46
2021/07/02 02:36:27;;;;;;;;;26.00;26.00;;;;;24.52;47.68;101336.22;5017435;27;51012;-45
2021/07/02 02:38:53;;;;;;;;;26.00;24.50;;;;;24.53;47.84;101340.66;5016674;27;51473;-44
2021/07/02 02:41:18;;;;;;;;;26.25;23.25;;;;;24.53;47.58;101340.66;5016639;28;51781;-44
2021/07/02 02:43:43;;;;;;;;;29.75;23.50;;;;;24.52;47.43;101331.50;5027408;27;50376;-44
2021/07/02 02:46:09;;;;;;;;;28.50;22.25;;;;;24.53;47.88;101335.13;5021654;28;51206;-45
2021/07/02 02:48:34;;;;;;;;;26.00;23.00;;;;;24.52;47.63;101333.44;5014550;27;50794;-46
2021/07/02 02:50:59;;;;;;;;;26.25;24.00;;;;;24.51;47.72;101329.81;5017586;28;52294;-46
2021/07/02 02:53:25;;;;;;;;;24.25;23.50;;;;;24.51;47.65;101335.38;5031373;27;51021;-45
2021/07/02 02:55:51;;;;;;;;;29.50;26.50;;;;;24.52;47.69;101338.97;5014557;28;51046;-44
2021/07/02 02:58:16;;;;;;;;;26.50;20.50;;;;;24.52;48.18;101330.66;5013680;28;51157;-45
2021/07/02 03:00:42;;;;;;;;;28.25;22.75;;;;;24.51;48.07;101338.13;5032622;27;51657;-46
2021/07/02 03:03:07;;;;;;;;;27.00;24.25;;;;;24.50;47.78;101324.53;5015975;27;51162;-45
2021/07/02 03:05:32;;;;;;;;;24.75;23.00;;;;;24.51;47.90;101331.75;5017335;27;50990;-45
2021/07/02 03:07:58;;;;;;;;;28.75;25.00;;;;;24.50;48.08;101333.69;5014718;28;51256;-45
2021/07/02 03:10:23;;;;;;;;;28.00;25.25;;;;;24.50;47.77;101330.06;5013694;28;51582;-45
2021/07/02 03:12:49;;;;;;;;;27.00;26.25;;;;;24.49;48.05;101323.69;5013216;28;51107;-44
2021/07/02 03:15:14;;;;;;;;;27.00;22.75;;;;;24.49;47.81;101318.16;5014565;28;51115;-45
2021/07/02 03:17:41;;;;;;;;;25.75;23.25;;;;;24.50;47.70;101316.22;5016639;28;51024;-44
2021/07/02 03:20:08;;;;;;;;;29.25;25.25;;;;;24.49;47.78;101323.69;5015024;28;51166;-45
2021/07/02 03:22:34;;;;;;;;;28.25;25.50;;;;;24.48;48.02;101324.75;5013070;27;51326;-46
2021/07/02 03:24:59;;;;;;;;;30.00;26.25;;;;;24.47;48.14;101329.44;5013481;28;50967;-46
2021/07/02 03:27:24;;;;;;;;;28.75;24.50;;;;;24.48;47.87;101327.50;5038527;27;51080;-46
2021/07/02 03:29:50;;;;;;;;;29.75;28.25;;;;;24.47;47.91;101326.66;5013281;28;52113;-46
2021/07/02 03:32:15;;;;;;;;;28.25;26.25;;;;;24.45;47.76;101328.84;5015889;28;51036;-47
2021/07/02 03:34:44;;;;;;;;;25.50;25.00;;;;;24.46;47.96;101321.38;5016017;28;51200;-44
2021/07/02 03:37:13;;;;;;;;;29.75;27.75;;;;;24.46;47.73;101332.44;5014116;28;51130;-45
2021/07/02 03:39:39;;;;;;;;;28.50;23.75;;;;;24.45;47.99;101325.22;5012186;27;51995;-46
2021/07/02 03:42:05;;;;;;;;;27.50;24.25;;;;;24.45;48.11;101322.44;5013062;28;50884;-46
2021/07/02 03:44:31;;;;;;;;;27.00;25.75;;;;;24.45;48.25;101322.44;5013143;28;51171;-45
2021/07/02 03:46:56;;;;;;;;;30.75;26.50;;;;;24.44;47.93;101324.38;5016387;28;51096;-44
2021/07/02 03:49:21;;;;;;;;;30.50;26.75;;;;;24.44;47.80;101320.78;5024487;28;51823;-44
2021/07/02 03:51:47;;;;;;;;;28.25;26.00;;;;;24.44;47.77;101331.84;5027403;28;50412;-46
2021/07/02 03:54:12;;;;;;;;;27.25;24.75;;;;;24.44;47.62;101329.91;5027846;27;51203;-48
2021/07/02 03:56:39;;;;;;;;;29.50;24.75;;;;;24.43;47.99;101325.47;5013634;27;51116;-44
2021/07/02 03:59:04;;;;;;;;;23.75;22.00;;;;;24.43;47.81;101325.47;5012475;28;51826;-46
2021/07/02 04:01:30;;;;;;;;;27.00;25.00;;;;;24.43;47.99;101330.16;5013681;27;51107;-46
2021/07/02 04:03:55;;;;;;;;;26.50;23.50;;;;;24.43;47.75;101335.69;5033955;27;51069;-46
2021/07/02 04:06:20;;;;;;;;;23.00;23.00;;;;;24.42;47.84;101331.25;5017807;28;51110;-46
2021/07/02 04:08:45;;;;;;;;;27.50;23.00;;;;;24.43;47.72;101338.47;5014057;28;58115;-45
2021/07/02 04:11:11;;;;;;;;;30.75;25.00;;;;;24.42;48.08;101337.63;5013678;28;51121;-44
2021/07/02 04:13:36;;;;;;;;;28.25;26.75;;;;;24.42;48.06;101336.78;5013009;28;51077;-44
2021/07/02 04:16:02;;;;;;;;;29.50;29.00;;;;;24.41;47.98;101335.94;5012650;27;50929;-46
2021/07/02 04:18:27;;;;;;;;;29.75;26.25;;;;;24.41;47.83;101340.63;5023840;28;52753;-47
2021/07/02 04:20:52;;;;;;;;;27.50;25.75;;;;;24.41;47.63;101341.47;5021662;28;50948;-44
2021/07/02 04:23:18;;;;;;;;;27.75;21.75;;;;;24.40;48.26;101342.56;5016162;28;51643;-45
2021/07/02 04:25:43;;;;;;;;;32.50;28.25;;;;;24.40;47.91;101336.19;5014627;28;50862;-44
2021/07/02 04:28:09;;;;;;;;;27.00;27.00;;;;;24.40;47.96;101341.72;5011757;27;51166;-45
2021/07/02 04:30:34;;;;;;;;;29.00;26.25;;;;;24.40;48.14;101347.25;5013006;28;51106;-43
2021/07/02 04:33:00;;;;;;;;;28.00;27.50;;;;;24.38;47.89;101344.69;5016198;28;50991;-44
2021/07/02 04:35:25;;;;;;;;;24.50;24.25;;;;;24.38;48.22;101350.22;5013879;27;51118;-46
2021/07/02 04:37:50;;;;;;;;;27.00;26.25;;;;;24.39;48.10;101351.94;5016066;28;51297;-44
2021/07/02 04:40:16;;;;;;;;;31.00;27.00;;;;;24.38;47.99;101349.41;5016662;28;50838;-48
2021/07/02 04:42:41;;;;;;;;;26.00;24.50;;;;;24.38;48.12;101355.78;5013438;27;51099;-48
2021/07/02 04:45:08;;;;;;;;;26.25;22.75;;;;;24.38;48.15;101352.16;5012029;27;51227;-47
2021/07/02 04:47:33;;;;;;;;;28.75;25.75;;;;;24.38;48.42;101355.78;5011904;28;51811;-45
2021/07/02 04:50:01;;;;;;;;;26.50;21.25;;;;;24.38;48.37;101353.00;5012965;28;51070;-43
2021/07/02 04:52:27;;;;;;;;;29.00;26.25;;;;;24.37;48.47;101347.72;5014975;28;51030;-46
2021/07/02 04:54:52;;;;;;;;;32.00;26.75;;;;;24.38;48.45;101352.16;5020350;28;51288;-42
2021/07/02 04:57:18;;;;;;;;;25.50;25.25;;;;;24.39;47.91;101356.66;5026864;27;51708;-46
2021/07/02 04:59:46;;;;;;;;;25.00;21.50;;;;;24.37;48.63;101351.31;5023617;28;51063;-45
2021/07/02 05:02:11;;;;;;;;;28.25;27.00;;;;;24.38;48.17;101354.94;5019597;28;51253;-44
2021/07/02 05:04:36;;;;;;;;;26.75;26.50;;;;;24.38;48.59;101355.78;5017542;28;50923;-44
2021/07/02 05:07:03;;;;;;;;;28.75;25.25;;;;;24.36;48.28;101344.09;5014672;28;50995;-46
2021/07/02 05:09:28;;;;;;;;;26.50;23.50;;;;;24.37;48.51;101351.31;5015462;28;51072;-47
2021/07/02 05:11:53;;;;;;;;;26.00;24.50;;;;;24.36;48.47;101348.78;5016471;28;51120;-45
2021/07/02 05:14:19;;;;;;;;;25.75;23.75;;;;;24.36;48.18;101355.16;5016345;27;51431;-42
2021/07/02 05:16:44;;;;;;;;;26.75;24.25;;;;;24.36;48.68;101360.72;5014842;28;51782;-41
2021/07/02 05:19:10;;;;;;;;;25.25;23.75;;;;;24.36;48.51;101360.72;5015096;28;51172;-48
2021/07/02 05:21:35;;;;;;;;;27.75;25.75;;;;;24.37;48.49;101350.47;5014759;28;51099;-45
2021/07/02 05:24:01;;;;;;;;;28.50;24.75;;;;;24.35;48.68;101356.25;5014571;28;51631;-43
2021/07/02 05:26:27;;;;;;;;;28.75;22.50;;;;;24.36;48.53;101354.31;5014893;28;51794;-43
2021/07/02 05:28:52;;;;;;;;;27.75;25.75;;;;;24.36;48.52;101348.78;5029380;27;51006;-43
2021/07/02 05:31:17;;;;;;;;;25.25;23.25;;;;;24.36;48.59;101346.88;5019017;28;51145;-45
2021/07/02 05:33:44;;;;;;;;;28.75;26.00;;;;;24.35;48.69;101356.25;5012755;28;50910;-45
2021/07/02 05:36:09;;;;;;;;;25.75;25.50;;;;;24.35;48.78;101350.72;5013529;28;51117;-43
2021/07/02 05:38:34;;;;;;;;;30.50;28.75;;;;;24.36;48.82;101354.31;5012954;28;51410;-46
2021/07/02 05:41:00;;;;;;;;;27.75;24.50;;;;;24.36;49.05;101351.56;5011710;28;52411;-54
2021/07/02 05:43:25;;;;;;;;;28.50;26.25;;;;;24.38;49.19;101358.53;5008528;28;51790;-48
2021/07/02 05:45:51;;;;;;;;;25.25;22.75;;;;;24.40;49.49;101350.03;5032312;27;51772;-48
2021/07/02 05:48:18;;;;;;;;;32.00;24.75;;;;;24.42;49.19;101356.16;5011818;28;51484;-49
2021/07/02 05:50:45;;;;;;;;;28.25;27.50;;;;;24.42;49.38;101362.53;5008342;28;51364;-50
2021/07/02 05:53:10;;;;;;;;;28.50;27.25;;;;;24.42;49.63;101356.16;5012636;28;51470;-49
2021/07/02 05:55:35;;;;;;;;;35.25;30.25;;;;;24.43;49.32;101364.22;5011204;28;51422;-47
2021/07/02 05:58:01;;;;;;;;;30.50;28.75;;;;;24.42;49.45;101357.00;5009949;27;51156;-46
2021/07/02 06:00:26;;;;;;;;;34.00;26.75;;;;;24.43;49.50;101361.47;5016543;28;50981;-47
2021/07/02 06:02:52;;;;;;;;;34.75;31.75;;;;;24.44;49.85;101363.16;5045183;27;51056;-47
2021/07/02 06:05:17;;;;;;;;;34.00;30.25;;;;;24.44;49.95;101357.59;5020417;28;50906;-46
2021/07/02 06:07:53;;;;;;;;;35.25;29.75;;;;;24.46;49.89;101357.38;5030286;28;50421;-45
2021/07/02 06:10:22;;;;;;;;;35.75;30.00;;;;;24.48;50.21;101369.03;5010499;28;51210;-43
2021/07/02 06:12:48;;;;;;;;;35.00;32.00;;;;;24.48;50.45;101366.28;5012119;27;51338;-47
2021/07/02 06:15:15;;;;;;;;;32.25;29.75;;;;;24.50;50.09;101357.75;5032105;27;51878;-44
2021/07/02 06:17:42;;;;;;;;;35.75;32.00;;;;;24.51;50.03;101357.53;5018855;28;51361;-45
2021/07/02 06:20:09;;;;;;;;;34.00;29.25;;;;;24.52;50.18;101361.97;5015229;28;51281;-47
2021/07/02 06:22:35;;;;;;;;;33.75;30.25;;;;;24.53;50.17;101363.66;5014127;28;51166;-47
2021/07/02 06:25:00;;;;;;;;;32.50;30.00;;;;;24.56;49.75;101363.19;5012092;28;51113;-48
2021/07/02 06:27:25;;;;;;;;;38.50;31.25;;;;;24.57;50.27;101355.72;5029382;27;51061;-49
2021/07/02 06:29:51;;;;;;;;;31.25;26.00;;;;;24.57;49.84;101359.31;5015778;28;51038;-48
2021/07/02 06:32:16;;;;;;;;;33.25;29.00;;;;;24.58;50.19;101349.94;5013683;28;51191;-46
2021/07/02 06:34:41;;;;;;;;;32.00;30.75;;;;;24.62;50.01;101356.69;5015104;28;51194;-46
2021/07/02 06:37:07;;;;;;;;;32.25;28.75;;;;;24.65;50.48;101352.59;5013977;28;51086;-44
2021/07/02 06:39:32;;;;;;;;;32.25;26.00;;;;;24.67;50.40;101358.75;5012210;28;51095;-45
2021/07/02 06:41:57;;;;;;;;;32.00;25.50;;;;;24.71;50.66;101360.81;5011582;27;52828;-46
2021/07/02 06:44:23;;;;;;;;;34.00;30.00;;;;;24.76;50.72;101362.84;5009033;28;53859;-48
2021/07/02 06:46:48;;;;;;;;;34.50;28.00;;;;;24.79;50.65;101350.44;5014232;28;51062;-46
2021/07/02 06:49:13;;;;;;;;;31.75;30.00;;;;;24.82;50.76;101356.38;5029765;28;51217;-47
2021/07/02 06:51:39;;;;;;;;;33.00;26.50;;;;;24.86;51.04;101349.25;5016669;28;51173;-47
2021/07/02 06:54:04;;;;;;;;;33.50;29.75;;;;;24.91;50.90;101354.09;5012017;27;51131;-50
2021/07/02 06:56:31;;;;;;;;;31.00;28.50;;;;;24.95;50.77;101361.69;5024174;27;51227;-45
2021/07/02 06:58:57;;;;;;;;;27.75;26.25;;;;;24.97;50.96;101358.66;5012291;28;51149;-52
2021/07/02 07:01:23;;;;;;;;;33.25;29.00;;;;;24.99;50.40;101373.13;5011478;27;51719;-53
2021/07/02 07:03:49;;;;;;;;;42.25;34.00;;;;;24.98;50.03;101366.72;5012612;27;51122;-54
2021/07/02 07:06:15;;;;;;;;;39.50;33.00;;;;;24.98;50.05;101363.13;5013896;28;51025;-55
2021/07/02 07:08:40;;;;;;;;;40.00;32.75;;;;;24.97;49.73;101367.81;5014507;27;51229;-55
2021/07/02 07:11:05;;;;;;;;;40.25;32.50;;;;;24.97;49.46;101369.75;5019813;28;51276;-57
2021/07/02 07:13:31;;;;;;;;;42.00;35.75;;;;;24.97;49.53;101369.75;5025170;27;52080;-56
2021/07/02 07:15:56;;;;;;;;;40.25;34.25;;;;;24.98;49.49;101365.88;5018857;28;51069;-57
2021/07/02 07:18:22;;;;;;;;;38.50;33.50;;;;;24.99;49.43;101368.41;5012128;27;51175;-55
2021/07/02 07:20:48;;;;;;;;;41.25;33.75;;;;;24.99;49.17;101376.72;5013021;28;51398;-55
2021/07/02 07:23:14;;;;;;;;;40.75;34.00;;;;;25.00;49.22;101372.03;5014343;28;51088;-57
2021/07/02 07:25:39;;;;;;;;;36.50;31.75;;;;;25.01;49.25;101370.94;5015407;27;51525;-56
2021/07/02 07:28:05;;;;;;;;;44.75;35.00;;;;;25.01;49.15;101365.41;5014319;27;51295;-57
2021/07/02 07:30:31;;;;;;;;;39.00;33.25;;;;;25.04;49.17;101373.28;5013389;27;51431;-54
2021/07/02 07:32:56;;;;;;;;;38.75;31.75;;;;;25.05;48.86;101366.66;5013030;28;51419;-55
2021/07/02 07:35:30;;;;;;;;;34.75;32.25;;;;;25.07;48.57;101374.72;5012136;28;51108;-53
2021/07/02 07:37:56;;;;;;;;;38.25;32.50;;;;;25.09;48.63;101369.78;5028171;28;51108;-55
2021/07/02 07:40:27;;;;;;;;;31.00;30.25;;;;;25.09;48.37;101367.84;5024390;27;51046;-57
2021/07/02 07:42:53;;;;;;;;;30.50;29.25;;;;;25.09;48.46;101369.78;5011673;28;52091;-54
2021/07/02 07:45:19;;;;;;;;;35.25;30.25;;;;;25.11;48.39;101368.44;5010720;27;51285;-55
2021/07/02 07:47:45;;;;;;;;;36.50;31.25;;;;;25.12;48.55;101374.88;5012097;28;52055;-55
2021/07/02 07:50:15;;;;;;;;;32.00;29.25;;;;;25.13;48.28;101380.16;5013878;28;51180;-55
2021/07/02 07:52:46;;;;;;;;;33.00;29.00;;;;;25.15;48.02;101374.38;5013871;28;51438;-55
2021/07/02 07:55:11;;;;;;;;;37.00;31.25;;;;;25.16;48.25;101373.28;5014786;27;51412;-55
2021/07/02 07:57:37;;;;;;;;;36.25;32.00;;;;;25.17;48.01;101380.50;5011307;28;51114;-53
2021/07/02 08:00:06;;;;;;;;;37.25;32.25;;;;;25.19;47.95;101384.72;5012889;28;51205;-51
2021/07/02 08:02:32;;;;;;;;;33.25;30.00;;;;;25.21;48.08;101377.00;5011195;27;52048;-48
2021/07/02 08:04:57;;;;;;;;;33.75;31.25;;;;;25.24;47.94;101382.09;5011518;27;51173;-55
2021/07/02 08:07:23;;;;;;;;;41.50;32.00;;;;;25.25;48.12;101383.78;5011370;28;51481;-53
2021/07/02 08:09:48;;;;;;;;;33.75;28.00;;;;;25.27;47.69;101380.75;5012901;28;51179;-54
2021/07/02 08:12:14;;;;;;;;;32.25;28.75;;;;;25.30;47.64;101388.59;5012115;28;52316;-59
2021/07/02 08:14:39;;;;;;;;;30.00;26.25;;;;;25.32;47.46;101389.19;5011276;27;51227;-50
2021/07/02 08:17:05;;;;;;;;;36.25;29.25;;;;;25.36;48.12;101384.00;5016657;28;51148;-51
2021/07/02 08:19:30;;;;;;;;;35.00;30.00;;;;;25.38;48.17;101388.22;5032152;27;51376;-52
2021/07/02 08:21:55;;;;;;;;;28.25;25.50;;;;;25.40;47.52;101383.28;5012597;28;51044;-50
2021/07/02 08:24:21;;;;;;;;;37.75;27.00;;;;;25.42;47.39;101383.88;5009335;28;51113;-48
2021/07/02 08:26:48;;;;;;;;;31.25;29.25;;;;;25.45;47.64;101388.13;5012180;28;51118;-46
2021/07/02 08:29:23;;;;;;;;;28.50;26.25;;;;;25.46;47.49;101393.41;5013813;27;51075;-48
2021/07/02 08:31:50;;;;;;;;;32.00;27.00;;;;;25.46;47.53;101395.34;5024788;27;51685;-47
2021/07/02 08:34:15;;;;;;;;;30.00;27.25;;;;;25.45;47.47;101394.50;5022019;27;51094;-48
2021/07/02 08:36:41;;;;;;;;;27.50;22.75;;;;;25.44;47.43;101391.97;5029420;27;51006;-49
2021/07/02 08:39:06;;;;;;;;;33.00;26.75;;;;;25.43;47.27;101384.72;5033242;27;51049;-47
2021/07/02 08:41:32;;;;;;;;;29.50;24.75;;;;;25.41;47.56;101387.72;5030557;27;52592;-47
2021/07/02 08:43:58;;;;;;;;;26.00;24.00;;;;;25.41;47.63;101386.88;5021594;27;52244;-48
2021/07/02 08:46:24;;;;;;;;;25.50;24.00;;;;;25.39;47.81;101378.81;5052015;27;51414;-49
2021/07/02 08:48:51;;;;;;;;;27.25;27.25;;;;;25.38;47.51;101379.91;5043100;27;51185;-49
2021/07/02 08:51:17;;;;;;;;;24.50;24.25;;;;;25.38;47.55;101376.28;5036689;27;51110;-49
2021/07/02 08:53:43;;;;;;;;;26.50;25.00;;;;;25.36;47.70;101375.69;5032791;27;51465;-48
2021/07/02 08:56:09;;;;;;;;;25.25;23.25;;;;;25.36;47.34;101372.91;5018974;27;53529;-51
2021/07/02 08:58:36;;;;;;;;;28.25;25.75;;;;;25.33;47.55;101375.09;5041624;27;51261;-49
2021/07/02 09:01:08;;;;;;;;;28.00;25.75;;;;;25.34;47.56;101367.63;5028752;27;51847;-49
2021/07/02 09:03:38;;;;;;;;;31.50;24.75;;;;;25.32;47.40;101362.31;5025185;27;51095;-48
2021/07/02 09:06:13;;;;;;;;;39.00;32.25;;;;;25.32;47.52;101367.00;5024747;27;51198;-49
2021/07/02 09:08:39;;;;;;;;;38.75;33.25;;;;;25.31;47.39;101371.69;5008241;27;51208;-49
2021/07/02 09:11:27;;;;;;;;;49.25;35.50;;;;;25.31;47.22;101368.09;5047314;27;52820;-49
2021/07/02 09:13:53;;;;;;;;;53.25;42.00;;;;;25.29;47.51;101357.25;5008649;27;51267;-49
2021/07/02 09:16:36;;;;;;;;;49.25;39.50;;;;;25.28;47.59;101361.09;5034956;27;52590;-46
2021/07/02 09:19:27;;;;;;;;;56.75;44.25;;;;;25.28;47.25;101361.09;5039141;27;51197;-49
2021/07/02 09:22:11;;;;;;;;;64.50;49.25;;;;;25.27;47.24;101364.97;5040744;27;51794;-46
2021/07/02 09:24:39;;;;;;;;;59.75;45.25;;;;;25.26;47.29;101354.97;5061486;27;50926;-50
2021/07/02 09:27:28;;;;;;;;;55.25;44.50;;;;;25.26;47.01;101359.66;5052544;27;51119;-50
2021/07/02 09:30:08;;;;;;;;;57.00;45.75;;;;;25.25;47.15;101353.28;5071010;27;51021;-49
2021/07/02 09:32:38;;;;;;;;;59.75;47.00;;;;;25.25;47.16;101356.06;5028867;27;52643;-49
2021/07/02 09:35:04;;;;;;;;;64.75;47.25;;;;;25.24;47.14;101351.59;5041338;27;51544;-51
2021/07/02 09:37:54;;;;;;;;;70.00;49.75;;;;;25.24;47.16;101354.38;5023512;27;51276;-50
2021/07/02 09:40:22;;;;;;;;;59.75;44.75;;;;;25.25;47.13;101346.88;5040189;27;51185;-51
2021/07/02 09:42:58;;;;;;;;;61.25;46.75;;;;;25.24;47.00;101346.03;5032590;27;52023;-52
2021/07/02 09:45:25;;;;;;;;;65.00;48.50;;;;;25.24;47.01;101343.28;5045334;27;51647;-48
2021/07/02 09:47:51;;;;;;;;;62.75;46.25;;;;;25.24;47.10;101334.13;5040184;27;51315;-47
2021/07/02 09:50:21;;;;;;;;;60.75;45.75;;;;;25.25;46.99;101335.81;5031578;27;52584;-47
2021/07/02 09:52:51;;;;;;;;;58.50;47.25;;;;;25.25;46.63;101344.13;5026897;27;51808;-48
2021/07/02 09:55:19;;;;;;;;;61.75;47.50;;;;;25.24;46.74;101342.44;5036385;27;51556;-49
2021/07/02 09:57:45;;;;;;;;;65.25;48.75;;;;;25.24;46.70;101343.28;5034340;27;51150;-49
2021/07/02 10:00:13;;;;;;;;;66.00;49.50;;;;;25.23;46.74;101347.13;5037043;27;51046;-50
2021/07/02 10:02:38;;;;;;;;;67.50;50.75;;;;;25.23;46.56;101338.81;5025771;27;53684;-50
2021/07/02 10:05:05;;;;;;;;;67.00;50.75;;;;;25.24;46.53;101336.88;5024436;27;51269;-48
2021/07/02 10:07:30;;;;;;;;;67.75;51.50;;;;;25.23;46.33;101341.59;5044853;27;51256;-47
2021/07/02 10:09:56;;;;;;;;;68.00;51.00;;;;;25.23;46.51;101333.28;5010687;27;51293;-47
2021/07/02 10:12:22;;;;;;;;;66.50;51.75;;;;;25.22;46.41;101331.59;5004935;27;51792;-47
2021/07/02 10:14:49;;;;;;;;;66.00;50.75;;;;;25.22;46.94;101333.50;5049176;27;51691;-47
2021/07/02 10:17:17;;;;;;;;;62.50;48.00;;;;;25.22;46.33;101331.59;5056213;27;51204;-46
2021/07/02 10:19:45;;;;;;;;;57.75;46.75;;;;;25.22;46.49;101330.72;5053855;27;51320;-45
2021/07/02 10:22:10;;;;;;;;;56.50;44.50;;;;;25.22;46.50;101328.81;5021141;27;51042;-46
2021/07/02 10:24:37;;;;;;;;;56.50;46.25;;;;;25.22;46.45;101331.59;5034378;27;51044;-48
2021/07/02 10:27:03;;;;;;;;;59.75;48.75;;;;;25.23;46.50;101335.19;5044069;27;50720;-47
2021/07/02 10:29:32;;;;;;;;;57.50;42.75;;;;;25.22;46.36;101337.13;5022831;27;51174;-50
2021/07/02 10:31:57;;;;;;;;;53.75;40.50;;;;;25.21;46.58;101332.66;5012724;27;51783;-46
2021/07/02 10:34:24;;;;;;;;;53.25;42.25;;;;;25.21;46.85;101331.81;5023602;27;51037;-50
2021/07/02 10:36:50;;;;;;;;;50.50;39.75;;;;;25.20;46.61;101333.72;5035669;27;51359;-48
2021/07/02 10:39:32;;;;;;;;;52.00;38.25;;;;;25.21;46.67;101338.19;5026460;27;51260;-50
2021/07/02 10:42:13;;;;;;;;;47.75;37.50;;;;;25.23;46.57;101337.97;5068497;27;51445;-48
2021/07/02 10:45:06;;;;;;;;;48.50;39.00;;;;;25.22;46.46;101337.13;5029313;27;51151;-46
2021/07/02 10:47:48;;;;;;;;;49.50;38.25;;;;;25.24;46.65;101336.88;5013093;27;50918;-49
2021/07/02 10:50:34;;;;;;;;;49.00;37.50;;;;;25.24;46.77;101343.28;5005643;28;50987;-46
2021/07/02 10:53:21;;;;;;;;;41.50;34.50;;;;;25.25;46.96;101338.56;5000756;28;52152;-46
2021/07/02 10:55:47;;;;;;;;;41.50;34.75;;;;;25.25;46.91;101333.03;5020309;27;51279;-49
2021/07/02 10:58:12;;;;;;;;;42.75;32.00;;;;;25.25;47.09;101336.63;5007229;28;51083;-49
2021/07/02 11:01:11;;;;;;;;;46.00;36.25;;;;;25.27;46.88;101328.06;5013200;27;51355;-46
2021/07/02 11:03:37;;;;;;;;;40.50;33.50;;;;;25.27;47.05;101331.69;5012298;28;51119;-48
2021/07/02 11:06:40;;;;;;;;;47.75;34.75;;;;;25.28;47.10;101325.06;5012575;28;51100;-47
2021/07/02 11:09:06;;;;;;;;;49.00;40.50;;;;;25.29;47.05;101323.13;5025125;27;51193;-50